sensor_id;sensor_type;location;lat;lon;timestamp;P1;durP1;ratioP1;P2;durP2;ratioP2
9208;SDS011;4639;48.862;9.188;2022-09-20T00:00:05;4.53;;;2.60;;
9208;SDS011;4639;48.862;9.188;2022-09-20T00:02:31;8.95;;;2.97;;
9208;SDS011;4639;48.862;9.188;2022-09-20T00:04:57;6.55;;;3.08;;
9208;SDS011;4639;48.862;9.188;2022-09-20T00:07:22;6.22;;;3.35;;
9208;SDS011;4639;48.862;9.188;2022-09-20T00:09:48;5.80;;;3.22;;
9208;SDS011;4639;48.862;9.188;2022-09-20T00:12:13;5.00;;;3.00;;
9208;SDS011;4639;48.862;9.188;2022-09-20T00:14:39;8.57;;;4.03;;
9208;SDS011;4639;48.862;9.188;2022-09-20T00:17:05;8.00;;;3.20;;
9208;SDS011;4639;48.862;9.188;2022-09-20T00:19:30;6.20;;;2.95;;
9208;SDS011;4639;48.862;9.188;2022-09-20T00:21:56;11.00;;;3.00;;
9208;SDS011;4639;48.862;9.188;2022-09-20T00:24:22;6.60;;;2.88;;
9208;SDS011;4639;48.862;9.188;2022-09-20T00:26:47;10.93;;;3.22;;
9208;SDS011;4639;48.862;9.188;2022-09-20T00:29:13;5.03;;;2.55;;
9208;SDS011;4639;48.862;9.188;2022-09-20T00:31:39;5.28;;;2.92;;
9208;SDS011;4639;48.862;9.188;2022-09-20T00:34:07;8.55;;;3.20;;
9208;SDS011;4639;48.862;9.188;2022-09-20T00:36:53;9.07;;;2.95;;
9208;SDS011;4639;48.862;9.188;2022-09-20T00:39:18;8.25;;;3.25;;
9208;SDS011;4639;48.862;9.188;2022-09-20T00:41:44;8.02;;;3.05;;
9208;SDS011;4639;48.862;9.188;2022-09-20T00:47:18;8.10;;;3.08;;
9208;SDS011;4639;48.862;9.188;2022-09-20T00:50:02;5.03;;;2.72;;
9208;SDS011;4639;48.862;9.188;2022-09-20T00:52:43;8.25;;;3.15;;
9208;SDS011;4639;48.862;9.188;2022-09-20T00:55:11;8.02;;;3.10;;
9208;SDS011;4639;48.862;9.188;2022-09-20T00:57:39;6.25;;;3.00;;
9208;SDS011;4639;48.862;9.188;2022-09-20T01:00:07;6.35;;;3.30;;
9208;SDS011;4639;48.862;9.188;2022-09-20T01:02:36;4.93;;;2.72;;
9208;SDS011;4639;48.862;9.188;2022-09-20T01:05:07;4.95;;;2.70;;
9208;SDS011;4639;48.862;9.188;2022-09-20T01:07:35;5.30;;;2.85;;
9208;SDS011;4639;48.862;9.188;2022-09-20T01:10:01;9.23;;;3.08;;
9208;SDS011;4639;48.862;9.188;2022-09-20T01:12:28;9.40;;;3.20;;
9208;SDS011;4639;48.862;9.188;2022-09-20T01:14:56;6.60;;;2.30;;
9208;SDS011;4639;48.862;9.188;2022-09-20T01:17:23;6.18;;;2.22;;
9208;SDS011;4639;48.862;9.188;2022-09-20T01:28:39;4.90;;;2.25;;
9208;SDS011;4639;48.862;9.188;2022-09-20T01:31:09;5.45;;;2.63;;
9208;SDS011;4639;48.862;9.188;2022-09-20T01:33:58;6.30;;;2.15;;
9208;SDS011;4639;48.862;9.188;2022-09-20T01:36:52;5.88;;;2.58;;
9208;SDS011;4639;48.862;9.188;2022-09-20T01:42:11;9.18;;;2.92;;
9208;SDS011;4639;48.862;9.188;2022-09-20T01:47:33;6.60;;;2.42;;
9208;SDS011;4639;48.862;9.188;2022-09-20T01:56:21;7.47;;;2.25;;
9208;SDS011;4639;48.862;9.188;2022-09-20T02:12:51;6.45;;;2.28;;
9208;SDS011;4639;48.862;9.188;2022-09-20T02:37:44;8.38;;;2.42;;
9208;SDS011;4639;48.862;9.188;2022-09-20T02:40:31;4.78;;;2.20;;
9208;SDS011;4639;48.862;9.188;2022-09-20T02:43:03;5.28;;;2.40;;
9208;SDS011;4639;48.862;9.188;2022-09-20T02:48:15;4.75;;;2.42;;
9208;SDS011;4639;48.862;9.188;2022-09-20T02:50:58;7.00;;;2.92;;
9208;SDS011;4639;48.862;9.188;2022-09-20T02:56:59;7.50;;;2.30;;
9208;SDS011;4639;48.862;9.188;2022-09-20T02:59:39;5.60;;;2.50;;
9208;SDS011;4639;48.862;9.188;2022-09-20T03:02:26;6.55;;;2.40;;
9208;SDS011;4639;48.862;9.188;2022-09-20T03:10:30;4.78;;;2.22;;
9208;SDS011;4639;48.862;9.188;2022-09-20T03:13:21;5.60;;;1.92;;
9208;SDS011;4639;48.862;9.188;2022-09-20T03:18:53;5.72;;;2.05;;
9208;SDS011;4639;48.862;9.188;2022-09-20T03:21:54;9.75;;;2.50;;
9208;SDS011;4639;48.862;9.188;2022-09-20T03:27:41;6.05;;;2.40;;
9208;SDS011;4639;48.862;9.188;2022-09-20T03:30:33;6.97;;;2.38;;
9208;SDS011;4639;48.862;9.188;2022-09-20T03:39:09;9.05;;;2.80;;
9208;SDS011;4639;48.862;9.188;2022-09-20T03:47:12;7.07;;;2.80;;
9208;SDS011;4639;48.862;9.188;2022-09-20T03:50:08;6.97;;;2.70;;
9208;SDS011;4639;48.862;9.188;2022-09-20T03:55:55;7.72;;;2.83;;
9208;SDS011;4639;48.862;9.188;2022-09-20T03:58:46;7.03;;;2.35;;
9208;SDS011;4639;48.862;9.188;2022-09-20T04:04:27;9.40;;;3.50;;
9208;SDS011;4639;48.862;9.188;2022-09-20T04:07:10;8.90;;;2.85;;
9208;SDS011;4639;48.862;9.188;2022-09-20T04:09:55;10.90;;;2.88;;
9208;SDS011;4639;48.862;9.188;2022-09-20T04:15:29;7.75;;;2.60;;
9208;SDS011;4639;48.862;9.188;2022-09-20T04:18:41;7.80;;;2.42;;
9208;SDS011;4639;48.862;9.188;2022-09-20T04:26:27;10.50;;;2.47;;
9208;SDS011;4639;48.862;9.188;2022-09-20T04:31:45;6.13;;;2.40;;
9208;SDS011;4639;48.862;9.188;2022-09-20T04:34:20;9.00;;;2.55;;
9208;SDS011;4639;48.862;9.188;2022-09-20T04:40:02;6.13;;;2.67;;
9208;SDS011;4639;48.862;9.188;2022-09-20T04:45:57;6.55;;;2.78;;
9208;SDS011;4639;48.862;9.188;2022-09-20T04:48:54;9.15;;;3.08;;
9208;SDS011;4639;48.862;9.188;2022-09-20T04:54:24;6.72;;;2.42;;
9208;SDS011;4639;48.862;9.188;2022-09-20T05:17:12;5.40;;;2.42;;
9208;SDS011;4639;48.862;9.188;2022-09-20T05:22:50;10.05;;;3.00;;
9208;SDS011;4639;48.862;9.188;2022-09-20T05:28:28;8.50;;;3.30;;
9208;SDS011;4639;48.862;9.188;2022-09-20T05:31:00;6.93;;;2.70;;
9208;SDS011;4639;48.862;9.188;2022-09-20T05:45:00;6.70;;;2.90;;
9208;SDS011;4639;48.862;9.188;2022-09-20T06:00:06;8.07;;;3.88;;
9208;SDS011;4639;48.862;9.188;2022-09-20T06:02:31;8.18;;;4.00;;
9208;SDS011;4639;48.862;9.188;2022-09-20T06:19:36;8.57;;;3.60;;
9208;SDS011;4639;48.862;9.188;2022-09-20T06:27:37;9.45;;;3.17;;
9208;SDS011;4639;48.862;9.188;2022-09-20T06:30:07;8.30;;;3.25;;
9208;SDS011;4639;48.862;9.188;2022-09-20T06:32:56;6.38;;;2.83;;
9208;SDS011;4639;48.862;9.188;2022-09-20T06:35:39;9.30;;;2.92;;
9208;SDS011;4639;48.862;9.188;2022-09-20T06:41:06;8.75;;;2.92;;
9208;SDS011;4639;48.862;9.188;2022-09-20T06:43:56;10.52;;;3.33;;
9208;SDS011;4639;48.862;9.188;2022-09-20T06:46:23;9.02;;;3.00;;
9208;SDS011;4639;48.862;9.188;2022-09-20T06:48:53;7.55;;;2.80;;
9208;SDS011;4639;48.862;9.188;2022-09-20T06:51:20;6.97;;;2.90;;
9208;SDS011;4639;48.862;9.188;2022-09-20T06:53:47;8.80;;;3.10;;
9208;SDS011;4639;48.862;9.188;2022-09-20T06:56:14;8.32;;;2.95;;
9208;SDS011;4639;48.862;9.188;2022-09-20T06:58:46;7.63;;;3.60;;
9208;SDS011;4639;48.862;9.188;2022-09-20T07:01:12;7.50;;;3.03;;
9208;SDS011;4639;48.862;9.188;2022-09-20T07:03:39;5.85;;;3.05;;
9208;SDS011;4639;48.862;9.188;2022-09-20T07:06:05;7.00;;;2.90;;
9208;SDS011;4639;48.862;9.188;2022-09-20T07:08:32;12.20;;;3.03;;
9208;SDS011;4639;48.862;9.188;2022-09-20T07:11:08;6.57;;;2.60;;
9208;SDS011;4639;48.862;9.188;2022-09-20T07:13:37;8.57;;;2.83;;
9208;SDS011;4639;48.862;9.188;2022-09-20T07:16:03;8.00;;;2.72;;
9208;SDS011;4639;48.862;9.188;2022-09-20T07:18:30;9.88;;;5.97;;
9208;SDS011;4639;48.862;9.188;2022-09-20T07:20:57;7.28;;;2.63;;
9208;SDS011;4639;48.862;9.188;2022-09-20T07:23:27;7.15;;;3.60;;
9208;SDS011;4639;48.862;9.188;2022-09-20T07:25:54;8.65;;;3.28;;
9208;SDS011;4639;48.862;9.188;2022-09-20T07:28:24;8.45;;;2.97;;
9208;SDS011;4639;48.862;9.188;2022-09-20T07:30:54;10.32;;;2.88;;
9208;SDS011;4639;48.862;9.188;2022-09-20T07:33:20;8.52;;;2.60;;
9208;SDS011;4639;48.862;9.188;2022-09-20T07:35:50;9.68;;;2.80;;
9208;SDS011;4639;48.862;9.188;2022-09-20T07:38:21;9.98;;;3.75;;
9208;SDS011;4639;48.862;9.188;2022-09-20T07:40:59;11.57;;;3.67;;
9208;SDS011;4639;48.862;9.188;2022-09-20T07:43:26;10.48;;;3.75;;
9208;SDS011;4639;48.862;9.188;2022-09-20T07:45:53;9.02;;;3.63;;
9208;SDS011;4639;48.862;9.188;2022-09-20T07:48:23;8.45;;;3.42;;
9208;SDS011;4639;48.862;9.188;2022-09-20T07:50:54;8.00;;;2.92;;
9208;SDS011;4639;48.862;9.188;2022-09-20T07:53:23;6.75;;;2.95;;
9208;SDS011;4639;48.862;9.188;2022-09-20T07:55:59;8.57;;;3.13;;
9208;SDS011;4639;48.862;9.188;2022-09-20T07:58:34;9.68;;;2.92;;
9208;SDS011;4639;48.862;9.188;2022-09-20T08:01:01;8.68;;;2.70;;
9208;SDS011;4639;48.862;9.188;2022-09-20T08:03:32;11.20;;;2.45;;
9208;SDS011;4639;48.862;9.188;2022-09-20T08:06:03;12.32;;;2.50;;
9208;SDS011;4639;48.862;9.188;2022-09-20T08:08:31;8.32;;;2.80;;
9208;SDS011;4639;48.862;9.188;2022-09-20T08:11:05;10.02;;;2.92;;
9208;SDS011;4639;48.862;9.188;2022-09-20T08:13:36;7.55;;;2.58;;
9208;SDS011;4639;48.862;9.188;2022-09-20T08:16:03;8.60;;;3.35;;
9208;SDS011;4639;48.862;9.188;2022-09-20T08:18:31;7.82;;;2.10;;
9208;SDS011;4639;48.862;9.188;2022-09-20T08:21:05;7.32;;;3.15;;
9208;SDS011;4639;48.862;9.188;2022-09-20T08:23:35;9.13;;;2.90;;
9208;SDS011;4639;48.862;9.188;2022-09-20T08:26:03;10.98;;;5.78;;
9208;SDS011;4639;48.862;9.188;2022-09-20T08:28:30;6.95;;;3.00;;
9208;SDS011;4639;48.862;9.188;2022-09-20T08:31:04;9.05;;;3.10;;
9208;SDS011;4639;48.862;9.188;2022-09-20T08:33:31;8.32;;;2.75;;
9208;SDS011;4639;48.862;9.188;2022-09-20T08:35:58;5.95;;;2.33;;
9208;SDS011;4639;48.862;9.188;2022-09-20T08:38:24;7.43;;;2.33;;
9208;SDS011;4639;48.862;9.188;2022-09-20T08:43:53;7.05;;;2.13;;
9208;SDS011;4639;48.862;9.188;2022-09-20T08:46:25;8.38;;;2.33;;
9208;SDS011;4639;48.862;9.188;2022-09-20T08:48:53;8.38;;;2.60;;
9208;SDS011;4639;48.862;9.188;2022-09-20T08:51:20;7.45;;;2.30;;
9208;SDS011;4639;48.862;9.188;2022-09-20T08:53:48;5.10;;;1.90;;
9208;SDS011;4639;48.862;9.188;2022-09-20T08:56:17;8.38;;;2.30;;
9208;SDS011;4639;48.862;9.188;2022-09-20T08:58:44;6.10;;;2.22;;
9208;SDS011;4639;48.862;9.188;2022-09-20T09:01:12;11.20;;;2.25;;
9208;SDS011;4639;48.862;9.188;2022-09-20T09:03:44;7.30;;;2.00;;
9208;SDS011;4639;48.862;9.188;2022-09-20T09:06:11;4.35;;;1.60;;
9208;SDS011;4639;48.862;9.188;2022-09-20T09:08:39;4.80;;;1.83;;
9208;SDS011;4639;48.862;9.188;2022-09-20T09:11:11;9.80;;;2.47;;
9208;SDS011;4639;48.862;9.188;2022-09-20T09:13:43;12.18;;;3.00;;
9208;SDS011;4639;48.862;9.188;2022-09-20T09:16:18;7.05;;;2.20;;
9208;SDS011;4639;48.862;9.188;2022-09-20T09:18:45;7.68;;;2.55;;
9208;SDS011;4639;48.862;9.188;2022-09-20T09:21:19;7.32;;;2.22;;
9208;SDS011;4639;48.862;9.188;2022-09-20T09:23:49;8.75;;;2.45;;
9208;SDS011;4639;48.862;9.188;2022-09-20T09:26:36;7.03;;;1.63;;
9208;SDS011;4639;48.862;9.188;2022-09-20T09:29:22;11.00;;;2.72;;
9208;SDS011;4639;48.862;9.188;2022-09-20T09:31:49;8.48;;;2.08;;
9208;SDS011;4639;48.862;9.188;2022-09-20T09:36:50;4.95;;;1.55;;
9208;SDS011;4639;48.862;9.188;2022-09-20T09:39:29;8.68;;;2.17;;
9208;SDS011;4639;48.862;9.188;2022-09-20T09:41:56;14.13;;;2.70;;
9208;SDS011;4639;48.862;9.188;2022-09-20T09:44:34;6.55;;;2.08;;
9208;SDS011;4639;48.862;9.188;2022-09-20T09:46:59;8.15;;;2.25;;
9208;SDS011;4639;48.862;9.188;2022-09-20T09:49:26;6.60;;;2.10;;
9208;SDS011;4639;48.862;9.188;2022-09-20T09:51:59;6.55;;;2.03;;
9208;SDS011;4639;48.862;9.188;2022-09-20T09:54:32;7.70;;;1.63;;
9208;SDS011;4639;48.862;9.188;2022-09-20T09:59:35;5.30;;;1.63;;
9208;SDS011;4639;48.862;9.188;2022-09-20T10:05:13;5.85;;;1.95;;
9208;SDS011;4639;48.862;9.188;2022-09-20T10:10:57;6.15;;;1.60;;
9208;SDS011;4639;48.862;9.188;2022-09-20T10:21:55;7.28;;;1.92;;
9208;SDS011;4639;48.862;9.188;2022-09-20T10:24:45;8.10;;;1.90;;
9208;SDS011;4639;48.862;9.188;2022-09-20T10:38:24;7.35;;;3.58;;
9208;SDS011;4639;48.862;9.188;2022-09-20T10:41:13;5.68;;;2.20;;
9208;SDS011;4639;48.862;9.188;2022-09-20T10:51:54;3.55;;;1.77;;
9208;SDS011;4639;48.862;9.188;2022-09-20T11:00:30;7.70;;;1.70;;
9208;SDS011;4639;48.862;9.188;2022-09-20T11:09:07;5.95;;;2.13;;
9208;SDS011;4639;48.862;9.188;2022-09-20T11:11:39;5.93;;;1.67;;
9208;SDS011;4639;48.862;9.188;2022-09-20T11:14:12;6.63;;;1.92;;
9208;SDS011;4639;48.862;9.188;2022-09-20T11:19:50;6.70;;;1.88;;
9208;SDS011;4639;48.862;9.188;2022-09-20T11:22:31;5.88;;;1.83;;
9208;SDS011;4639;48.862;9.188;2022-09-20T11:25:12;5.38;;;1.80;;
9208;SDS011;4639;48.862;9.188;2022-09-20T11:28:30;11.18;;;2.00;;
9208;SDS011;4639;48.862;9.188;2022-09-20T11:30:33;4.38;;;1.88;;
9208;SDS011;4639;48.862;9.188;2022-09-20T11:33:11;6.00;;;1.58;;
9208;SDS011;4639;48.862;9.188;2022-09-20T11:36:01;3.55;;;1.75;;
9208;SDS011;4639;48.862;9.188;2022-09-20T11:41:04;6.10;;;1.95;;
9208;SDS011;4639;48.862;9.188;2022-09-20T11:43:38;6.47;;;1.90;;
9208;SDS011;4639;48.862;9.188;2022-09-20T11:46:09;6.28;;;1.80;;
9208;SDS011;4639;48.862;9.188;2022-09-20T11:48:42;4.70;;;1.50;;
9208;SDS011;4639;48.862;9.188;2022-09-20T11:51:38;12.18;;;2.28;;
9208;SDS011;4639;48.862;9.188;2022-09-20T11:56:29;8.50;;;1.80;;
9208;SDS011;4639;48.862;9.188;2022-09-20T11:58:59;4.68;;;1.63;;
9208;SDS011;4639;48.862;9.188;2022-09-20T12:03:59;5.57;;;1.60;;
9208;SDS011;4639;48.862;9.188;2022-09-20T12:06:54;4.25;;;1.65;;
9208;SDS011;4639;48.862;9.188;2022-09-20T12:09:39;5.80;;;1.40;;
9208;SDS011;4639;48.862;9.188;2022-09-20T12:14:56;5.22;;;1.83;;
9208;SDS011;4639;48.862;9.188;2022-09-20T12:28:34;4.45;;;1.90;;
9208;SDS011;4639;48.862;9.188;2022-09-20T12:36:35;8.20;;;2.00;;
9208;SDS011;4639;48.862;9.188;2022-09-20T12:41:47;4.72;;;1.55;;
9208;SDS011;4639;48.862;9.188;2022-09-20T13:00:37;5.63;;;1.65;;
9208;SDS011;4639;48.862;9.188;2022-09-20T13:05:43;4.10;;;1.65;;
9208;SDS011;4639;48.862;9.188;2022-09-20T13:08:14;3.78;;;1.30;;
9208;SDS011;4639;48.862;9.188;2022-09-20T13:10:59;3.72;;;1.50;;
9208;SDS011;4639;48.862;9.188;2022-09-20T13:13:54;9.93;;;3.05;;
9208;SDS011;4639;48.862;9.188;2022-09-20T13:16:23;7.05;;;2.47;;
9208;SDS011;4639;48.862;9.188;2022-09-20T13:19:05;3.10;;;1.63;;
9208;SDS011;4639;48.862;9.188;2022-09-20T13:21:39;6.90;;;1.95;;
9208;SDS011;4639;48.862;9.188;2022-09-20T13:24:17;8.65;;;1.88;;
9208;SDS011;4639;48.862;9.188;2022-09-20T13:26:45;5.95;;;2.05;;
9208;SDS011;4639;48.862;9.188;2022-09-20T13:29:24;6.68;;;2.30;;
9208;SDS011;4639;48.862;9.188;2022-09-20T13:32:19;5.30;;;1.60;;
9208;SDS011;4639;48.862;9.188;2022-09-20T13:35:07;7.78;;;2.00;;
9208;SDS011;4639;48.862;9.188;2022-09-20T13:37:46;3.35;;;1.67;;
9208;SDS011;4639;48.862;9.188;2022-09-20T13:40:33;5.43;;;1.73;;
9208;SDS011;4639;48.862;9.188;2022-09-20T13:43:01;6.50;;;2.22;;
9208;SDS011;4639;48.862;9.188;2022-09-20T13:45:40;5.53;;;1.75;;
9208;SDS011;4639;48.862;9.188;2022-09-20T13:48:06;4.78;;;2.03;;
9208;SDS011;4639;48.862;9.188;2022-09-20T13:50:34;7.07;;;1.70;;
9208;SDS011;4639;48.862;9.188;2022-09-20T13:53:02;7.30;;;2.20;;
9208;SDS011;4639;48.862;9.188;2022-09-20T13:55:39;7.10;;;1.70;;
9208;SDS011;4639;48.862;9.188;2022-09-20T13:58:27;5.97;;;2.60;;
9208;SDS011;4639;48.862;9.188;2022-09-20T14:00:55;7.00;;;2.17;;
9208;SDS011;4639;48.862;9.188;2022-09-20T14:03:24;4.25;;;2.42;;
9208;SDS011;4639;48.862;9.188;2022-09-20T14:08:50;6.45;;;2.60;;
9208;SDS011;4639;48.862;9.188;2022-09-20T14:13:47;8.27;;;2.38;;
9208;SDS011;4639;48.862;9.188;2022-09-20T14:16:15;3.35;;;1.48;;
9208;SDS011;4639;48.862;9.188;2022-09-20T14:18:42;4.50;;;1.70;;
9208;SDS011;4639;48.862;9.188;2022-09-20T14:21:12;4.18;;;1.65;;
9208;SDS011;4639;48.862;9.188;2022-09-20T14:23:52;5.32;;;1.63;;
9208;SDS011;4639;48.862;9.188;2022-09-20T14:26:22;3.08;;;1.52;;
9208;SDS011;4639;48.862;9.188;2022-09-20T14:28:54;3.45;;;1.83;;
9208;SDS011;4639;48.862;9.188;2022-09-20T14:31:21;4.40;;;1.95;;
9208;SDS011;4639;48.862;9.188;2022-09-20T14:33:50;5.70;;;2.10;;
9208;SDS011;4639;48.862;9.188;2022-09-20T14:36:19;3.17;;;1.65;;
9208;SDS011;4639;48.862;9.188;2022-09-20T14:38:47;5.32;;;1.98;;
9208;SDS011;4639;48.862;9.188;2022-09-20T14:41:25;3.65;;;1.88;;
9208;SDS011;4639;48.862;9.188;2022-09-20T14:44:05;4.18;;;1.65;;
9208;SDS011;4639;48.862;9.188;2022-09-20T14:46:44;3.83;;;1.55;;
9208;SDS011;4639;48.862;9.188;2022-09-20T14:49:19;2.88;;;1.70;;
9208;SDS011;4639;48.862;9.188;2022-09-20T14:51:49;3.53;;;1.75;;
9208;SDS011;4639;48.862;9.188;2022-09-20T14:54:21;4.22;;;2.00;;
9208;SDS011;4639;48.862;9.188;2022-09-20T14:56:49;3.92;;;1.55;;
9208;SDS011;4639;48.862;9.188;2022-09-20T15:01:52;4.00;;;1.35;;
9208;SDS011;4639;48.862;9.188;2022-09-20T15:04:21;5.15;;;1.83;;
9208;SDS011;4639;48.862;9.188;2022-09-20T15:06:48;2.78;;;1.60;;
9208;SDS011;4639;48.862;9.188;2022-09-20T15:09:14;2.40;;;1.55;;
9208;SDS011;4639;48.862;9.188;2022-09-20T15:11:41;2.47;;;1.45;;
9208;SDS011;4639;48.862;9.188;2022-09-20T15:14:07;2.15;;;1.45;;
9208;SDS011;4639;48.862;9.188;2022-09-20T15:16:32;2.47;;;1.50;;
9208;SDS011;4639;48.862;9.188;2022-09-20T15:18:58;1.80;;;1.10;;
9208;SDS011;4639;48.862;9.188;2022-09-20T15:21:24;2.38;;;1.42;;
9208;SDS011;4639;48.862;9.188;2022-09-20T15:23:50;3.47;;;1.38;;
9208;SDS011;4639;48.862;9.188;2022-09-20T15:26:16;3.28;;;1.50;;
9208;SDS011;4639;48.862;9.188;2022-09-20T15:28:46;2.63;;;1.30;;
9208;SDS011;4639;48.862;9.188;2022-09-20T15:31:12;2.72;;;1.77;;
9208;SDS011;4639;48.862;9.188;2022-09-20T15:33:39;2.97;;;1.60;;
9208;SDS011;4639;48.862;9.188;2022-09-20T15:36:06;4.43;;;1.63;;
9208;SDS011;4639;48.862;9.188;2022-09-20T15:38:32;2.58;;;1.50;;
9208;SDS011;4639;48.862;9.188;2022-09-20T15:41:00;4.32;;;1.50;;
9208;SDS011;4639;48.862;9.188;2022-09-20T15:43:30;2.47;;;1.48;;
9208;SDS011;4639;48.862;9.188;2022-09-20T15:45:59;2.63;;;1.30;;
9208;SDS011;4639;48.862;9.188;2022-09-20T15:48:40;4.38;;;1.60;;
9208;SDS011;4639;48.862;9.188;2022-09-20T15:51:06;3.15;;;1.63;;
9208;SDS011;4639;48.862;9.188;2022-09-20T15:53:39;3.15;;;1.30;;
9208;SDS011;4639;48.862;9.188;2022-09-20T15:58:43;2.78;;;1.45;;
9208;SDS011;4639;48.862;9.188;2022-09-20T16:01:12;3.70;;;1.38;;
9208;SDS011;4639;48.862;9.188;2022-09-20T16:03:40;3.00;;;1.52;;
9208;SDS011;4639;48.862;9.188;2022-09-20T16:06:07;3.80;;;1.58;;
9208;SDS011;4639;48.862;9.188;2022-09-20T16:08:34;3.92;;;1.88;;
9208;SDS011;4639;48.862;9.188;2022-09-20T16:11:01;2.65;;;1.20;;
9208;SDS011;4639;48.862;9.188;2022-09-20T16:13:27;3.28;;;1.30;;
9208;SDS011;4639;48.862;9.188;2022-09-20T16:15:56;4.22;;;1.48;;
9208;SDS011;4639;48.862;9.188;2022-09-20T16:18:26;3.28;;;1.30;;
9208;SDS011;4639;48.862;9.188;2022-09-20T16:21:12;2.63;;;1.60;;
9208;SDS011;4639;48.862;9.188;2022-09-20T16:23:40;5.38;;;1.73;;
9208;SDS011;4639;48.862;9.188;2022-09-20T16:26:10;2.88;;;1.63;;
9208;SDS011;4639;48.862;9.188;2022-09-20T16:28:41;4.13;;;1.70;;
9208;SDS011;4639;48.862;9.188;2022-09-20T16:31:29;4.07;;;1.63;;
9208;SDS011;4639;48.862;9.188;2022-09-20T16:33:55;2.33;;;1.50;;
9208;SDS011;4639;48.862;9.188;2022-09-20T16:36:21;2.55;;;1.67;;
9208;SDS011;4639;48.862;9.188;2022-09-20T16:38:49;3.70;;;1.60;;
9208;SDS011;4639;48.862;9.188;2022-09-20T16:41:15;4.05;;;1.60;;
9208;SDS011;4639;48.862;9.188;2022-09-20T16:43:41;3.58;;;1.60;;
9208;SDS011;4639;48.862;9.188;2022-09-20T16:46:06;3.05;;;1.90;;
9208;SDS011;4639;48.862;9.188;2022-09-20T16:48:33;5.45;;;2.20;;
9208;SDS011;4639;48.862;9.188;2022-09-20T16:50:59;4.13;;;1.90;;
9208;SDS011;4639;48.862;9.188;2022-09-20T16:53:25;5.05;;;2.30;;
9208;SDS011;4639;48.862;9.188;2022-09-20T16:55:51;7.05;;;2.67;;
9208;SDS011;4639;48.862;9.188;2022-09-20T16:58:22;5.60;;;2.25;;
9208;SDS011;4639;48.862;9.188;2022-09-20T17:00:58;4.95;;;2.03;;
9208;SDS011;4639;48.862;9.188;2022-09-20T17:03:30;5.05;;;2.25;;
9208;SDS011;4639;48.862;9.188;2022-09-20T17:06:02;5.65;;;1.75;;
9208;SDS011;4639;48.862;9.188;2022-09-20T17:08:29;4.68;;;1.70;;
9208;SDS011;4639;48.862;9.188;2022-09-20T17:11:12;3.03;;;1.98;;
9208;SDS011;4639;48.862;9.188;2022-09-20T17:13:41;3.97;;;1.92;;
9208;SDS011;4639;48.862;9.188;2022-09-20T17:16:09;3.70;;;2.25;;
9208;SDS011;4639;48.862;9.188;2022-09-20T17:18:37;4.47;;;2.28;;
9208;SDS011;4639;48.862;9.188;2022-09-20T17:21:07;5.82;;;2.22;;
9208;SDS011;4639;48.862;9.188;2022-09-20T17:23:33;6.20;;;2.20;;
9208;SDS011;4639;48.862;9.188;2022-09-20T17:26:03;4.05;;;2.20;;
9208;SDS011;4639;48.862;9.188;2022-09-20T17:28:37;5.78;;;2.10;;
9208;SDS011;4639;48.862;9.188;2022-09-20T17:31:05;6.63;;;2.28;;
9208;SDS011;4639;48.862;9.188;2022-09-20T17:33:32;4.65;;;2.30;;
9208;SDS011;4639;48.862;9.188;2022-09-20T17:35:59;5.78;;;2.40;;
9208;SDS011;4639;48.862;9.188;2022-09-20T17:38:29;6.07;;;2.97;;
9208;SDS011;4639;48.862;9.188;2022-09-20T17:41:01;5.07;;;2.65;;
9208;SDS011;4639;48.862;9.188;2022-09-20T17:43:30;4.82;;;2.20;;
9208;SDS011;4639;48.862;9.188;2022-09-20T17:46:05;2.75;;;2.08;;
9208;SDS011;4639;48.862;9.188;2022-09-20T17:48:34;7.07;;;2.67;;
9208;SDS011;4639;48.862;9.188;2022-09-20T17:51:00;6.97;;;2.72;;
9208;SDS011;4639;48.862;9.188;2022-09-20T17:53:27;8.30;;;3.60;;
9208;SDS011;4639;48.862;9.188;2022-09-20T17:55:54;11.90;;;4.70;;
9208;SDS011;4639;48.862;9.188;2022-09-20T17:58:21;5.63;;;2.92;;
9208;SDS011;4639;48.862;9.188;2022-09-20T18:00:47;4.25;;;2.78;;
9208;SDS011;4639;48.862;9.188;2022-09-20T18:03:13;7.40;;;3.08;;
9208;SDS011;4639;48.862;9.188;2022-09-20T18:05:40;6.72;;;3.00;;
9208;SDS011;4639;48.862;9.188;2022-09-20T18:08:05;5.07;;;2.78;;
9208;SDS011;4639;48.862;9.188;2022-09-20T18:10:31;5.13;;;2.70;;
9208;SDS011;4639;48.862;9.188;2022-09-20T18:12:57;4.22;;;3.00;;
9208;SDS011;4639;48.862;9.188;2022-09-20T18:15:22;5.40;;;3.13;;
9208;SDS011;4639;48.862;9.188;2022-09-20T18:17:48;6.65;;;3.03;;
9208;SDS011;4639;48.862;9.188;2022-09-20T18:20:14;5.70;;;3.20;;
9208;SDS011;4639;48.862;9.188;2022-09-20T18:22:40;4.57;;;2.88;;
9208;SDS011;4639;48.862;9.188;2022-09-20T18:25:05;7.07;;;3.17;;
9208;SDS011;4639;48.862;9.188;2022-09-20T18:27:31;9.77;;;3.30;;
9208;SDS011;4639;48.862;9.188;2022-09-20T18:29:58;6.40;;;3.20;;
9208;SDS011;4639;48.862;9.188;2022-09-20T18:32:24;4.95;;;2.88;;
9208;SDS011;4639;48.862;9.188;2022-09-20T18:34:53;7.38;;;3.50;;
9208;SDS011;4639;48.862;9.188;2022-09-20T18:37:19;6.13;;;3.40;;
9208;SDS011;4639;48.862;9.188;2022-09-20T18:39:45;6.43;;;3.33;;
9208;SDS011;4639;48.862;9.188;2022-09-20T18:42:10;3.78;;;2.90;;
9208;SDS011;4639;48.862;9.188;2022-09-20T18:44:36;8.48;;;3.75;;
9208;SDS011;4639;48.862;9.188;2022-09-20T18:47:02;5.50;;;3.42;;
9208;SDS011;4639;48.862;9.188;2022-09-20T18:49:28;6.90;;;3.80;;
9208;SDS011;4639;48.862;9.188;2022-09-20T18:51:55;6.88;;;3.97;;
9208;SDS011;4639;48.862;9.188;2022-09-20T18:54:21;6.32;;;3.95;;
9208;SDS011;4639;48.862;9.188;2022-09-20T18:56:48;7.90;;;4.55;;
9208;SDS011;4639;48.862;9.188;2022-09-20T18:59:15;8.82;;;4.95;;
9208;SDS011;4639;48.862;9.188;2022-09-20T19:01:47;5.25;;;3.63;;
9208;SDS011;4639;48.862;9.188;2022-09-20T19:04:21;6.80;;;4.38;;
9208;SDS011;4639;48.862;9.188;2022-09-20T19:12:51;5.22;;;3.90;;
9208;SDS011;4639;48.862;9.188;2022-09-20T19:23:37;11.48;;;5.53;;
9208;SDS011;4639;48.862;9.188;2022-09-20T19:26:29;7.30;;;4.88;;
9208;SDS011;4639;48.862;9.188;2022-09-20T19:28:57;9.50;;;5.07;;
9208;SDS011;4639;48.862;9.188;2022-09-20T19:33:51;6.65;;;4.60;;
9208;SDS011;4639;48.862;9.188;2022-09-20T19:36:19;9.55;;;4.47;;
9208;SDS011;4639;48.862;9.188;2022-09-20T19:41:47;5.88;;;4.45;;
9208;SDS011;4639;48.862;9.188;2022-09-20T19:44:33;6.20;;;4.07;;
9208;SDS011;4639;48.862;9.188;2022-09-20T19:50:42;7.47;;;3.78;;
9208;SDS011;4639;48.862;9.188;2022-09-20T19:53:12;6.85;;;4.13;;
9208;SDS011;4639;48.862;9.188;2022-09-20T19:55:39;10.10;;;4.13;;
9208;SDS011;4639;48.862;9.188;2022-09-20T19:58:10;6.90;;;3.88;;
9208;SDS011;4639;48.862;9.188;2022-09-20T20:00:36;7.40;;;4.20;;
9208;SDS011;4639;48.862;9.188;2022-09-20T20:03:01;8.55;;;4.38;;
9208;SDS011;4639;48.862;9.188;2022-09-20T20:05:27;8.02;;;5.00;;
9208;SDS011;4639;48.862;9.188;2022-09-20T20:10:39;7.45;;;4.22;;
9208;SDS011;4639;48.862;9.188;2022-09-20T20:16:10;7.43;;;4.22;;
9208;SDS011;4639;48.862;9.188;2022-09-20T20:19:18;8.13;;;4.63;;
9208;SDS011;4639;48.862;9.188;2022-09-20T20:21:49;6.88;;;4.28;;
9208;SDS011;4639;48.862;9.188;2022-09-20T20:24:40;6.63;;;4.18;;
9208;SDS011;4639;48.862;9.188;2022-09-20T20:27:13;8.80;;;4.22;;
9208;SDS011;4639;48.862;9.188;2022-09-20T20:29:39;5.72;;;4.40;;
9208;SDS011;4639;48.862;9.188;2022-09-20T20:32:05;7.03;;;4.47;;
9208;SDS011;4639;48.862;9.188;2022-09-20T20:34:30;8.52;;;4.97;;
9208;SDS011;4639;48.862;9.188;2022-09-20T20:36:57;10.68;;;6.57;;
9208;SDS011;4639;48.862;9.188;2022-09-20T20:39:27;12.25;;;6.93;;
9208;SDS011;4639;48.862;9.188;2022-09-20T20:42:02;15.75;;;8.65;;
9208;SDS011;4639;48.862;9.188;2022-09-20T20:44:28;19.42;;;10.77;;
9208;SDS011;4639;48.862;9.188;2022-09-20T20:46:55;20.58;;;11.45;;
9208;SDS011;4639;48.862;9.188;2022-09-20T20:49:21;27.52;;;14.93;;
9208;SDS011;4639;48.862;9.188;2022-09-20T20:51:47;35.45;;;19.98;;
9208;SDS011;4639;48.862;9.188;2022-09-20T20:54:13;28.98;;;17.35;;
9208;SDS011;4639;48.862;9.188;2022-09-20T20:56:39;18.15;;;11.70;;
9208;SDS011;4639;48.862;9.188;2022-09-20T20:59:04;16.60;;;10.23;;
9208;SDS011;4639;48.862;9.188;2022-09-20T21:01:34;15.93;;;9.25;;
9208;SDS011;4639;48.862;9.188;2022-09-20T21:04:15;19.15;;;11.98;;
9208;SDS011;4639;48.862;9.188;2022-09-20T21:06:42;17.17;;;11.98;;
9208;SDS011;4639;48.862;9.188;2022-09-20T21:09:08;21.73;;;12.02;;
9208;SDS011;4639;48.862;9.188;2022-09-20T21:11:35;14.77;;;10.18;;
9208;SDS011;4639;48.862;9.188;2022-09-20T21:14:04;16.75;;;10.57;;